Portada
METAR-TAF:

METAR-TAF

Aeroports :

Iguaçú, Argentina

latitud: 25-44S, longitud: 054-28W, altitud: 270 m

Observació

L'informe es va fer fa 49 minuts, a les 02:00 UTC
Vent 2 kt amb direcció variable
Temperatura 19°C
Humitat 94%
Pressió 1010 hPa
Visibilitat 10 km o més
Escasses núvols a una alçada de 700 ft
Cel cobert a una alçada de 4500 ft

METAR: SARI 180200Z VRB02KT 9999 FEW007 OVC045 19/18 Q1010 RETSRA

Hora: 23:49 (02:49 UTC)

Pronòstic

L'informe es va fer fa 3 hores i 49 minuts, a les 23:00 UTC
Pronòstic vàlid del 18 a les 00 UTC al 18 a les 24 UTC
Vent 5 kt del Est
Visibilitat 10 km o més
sense núvols per sota de 1500 mi sense presència de cumulonimbus.
Evolucionant progressivament
l' 18 a les 01 UTC al 18 a les 03 UTC
Visibilitat: 5000 m
Cel ennuvolat a una alçada de 1000 ft
Escasses núvols a una alçada de 5000 ft, Cumulonimbus.
tempesta, pluja,

TAF: SARI 172300Z 1800/1824 09005KT CAVOK TX25/1818Z TN17/1810Z BECMG 1801/1803 5000 TSRA BKN010 FEW050CB

Observacions i pronòstics meteorològics de més de 4000 aeroports (METAR i TAF).

Les estacions disponibles són els punts grocs i vermells al mapa.

Posi el ratolí al punt desitjat per veure el nom de l'estació.

Feu clic per veure les observacions i els pronòstics meteorològics.

Per canviar el mapa: feu clic els botons verds amb una creu de color negre per apropar; al botó verd amb un guió per allunyar la imatge; o en les fletxes verdes per a mapes adjacents.


METAR-TAF: